createdAt,value
2018-08-20T00:00:54.016Z,18.35
2018-08-20T00:03:22.310Z,12.78
2018-08-20T00:05:57.518Z,14.40
2018-08-20T00:08:25.809Z,13.48
2018-08-20T00:10:56.610Z,14.85
2018-08-20T00:13:25.409Z,14.18
2018-08-20T00:15:54.425Z,12.90
2018-08-20T00:18:28.039Z,14.80
2018-08-20T00:20:56.391Z,17.67
2018-08-20T00:23:25.178Z,15.53
2018-08-20T00:25:56.406Z,15.80
2018-08-20T00:28:24.930Z,18.20
2018-08-20T00:30:53.246Z,15.95
2018-08-20T00:33:21.578Z,16.40
2018-08-20T00:35:49.880Z,14.83
2018-08-20T00:38:18.191Z,15.30
2018-08-20T00:40:46.676Z,18.00
2018-08-20T00:43:15.029Z,15.80
2018-08-20T00:45:43.496Z,13.20
2018-08-20T00:48:11.840Z,14.63
2018-08-20T00:50:40.181Z,13.90
2018-08-20T00:53:08.455Z,18.37
2018-08-20T00:55:36.728Z,18.17
2018-08-20T00:58:05.050Z,15.75
2018-08-20T01:00:33.328Z,15.80
2018-08-20T01:03:01.619Z,16.95
2018-08-20T01:05:30.025Z,12.00
2018-08-20T01:07:58.305Z,16.45
2018-08-20T01:10:26.614Z,12.07
2018-08-20T01:12:54.869Z,15.80
2018-08-20T01:15:23.398Z,16.00
2018-08-20T01:17:51.721Z,13.48
2018-08-20T01:20:20.100Z,17.25
2018-08-20T01:22:48.453Z,15.85
2018-08-20T01:25:16.716Z,15.10
2018-08-20T01:27:48.860Z,12.93
2018-08-20T01:30:17.160Z,14.10
2018-08-20T01:32:45.681Z,14.95
2018-08-20T01:35:24.843Z,12.60
2018-08-20T01:37:53.120Z,16.95
2018-08-20T01:40:21.400Z,15.63
2018-08-20T01:42:49.742Z,12.95
2018-08-20T01:45:18.052Z,16.27
2018-08-20T01:47:46.490Z,12.80
2018-08-20T01:50:14.799Z,13.62
2018-08-20T01:52:43.102Z,18.05
2018-08-20T01:55:11.391Z,13.50
2018-08-20T01:57:39.694Z,17.05
2018-08-20T02:00:08.001Z,16.73
2018-08-20T02:02:36.330Z,15.75
2018-08-20T02:05:05.595Z,16.35
2018-08-20T02:07:33.862Z,15.50
2018-08-20T02:10:02.202Z,17.82
2018-08-20T02:12:30.833Z,17.07
2018-08-20T02:18:06.309Z,15.55
2018-08-20T02:20:34.644Z,15.55
2018-08-20T02:23:03.001Z,18.32
2018-08-20T02:25:31.261Z,17.75
2018-08-20T02:27:59.527Z,17.55
2018-08-20T02:30:27.842Z,16.07
2018-08-20T02:32:56.218Z,17.00
2018-08-20T02:35:24.527Z,15.65
2018-08-20T02:37:52.815Z,20.75
2018-08-20T02:40:21.095Z,16.27
2018-08-20T02:42:49.507Z,14.78
2018-08-20T02:45:18.866Z,14.00
2018-08-20T02:47:47.488Z,16.80
2018-08-20T02:50:16.168Z,17.90
2018-08-20T02:52:45.111Z,14.55
2018-08-20T02:55:13.598Z,19.87
2018-08-20T02:57:41.851Z,22.60
2018-08-20T03:00:12.282Z,16.70
2018-08-20T03:02:40.599Z,20.37
2018-08-20T03:05:10.075Z,14.05
2018-08-20T03:07:38.355Z,14.13
2018-08-20T03:10:08.481Z,19.62
2018-08-20T03:12:36.866Z,17.25
2018-08-20T03:15:05.971Z,17.25
2018-08-20T03:17:34.300Z,18.92
2018-08-20T03:20:02.610Z,15.38
2018-08-20T03:22:30.875Z,16.17
2018-08-20T03:24:59.277Z,15.03
2018-08-20T03:27:27.537Z,15.35
2018-08-20T03:29:55.837Z,17.60
2018-08-20T03:32:24.298Z,22.27
2018-08-20T03:34:52.709Z,16.02
2018-08-20T03:37:21.031Z,16.52
2018-08-20T03:39:49.377Z,19.30
2018-08-20T03:42:17.653Z,18.48
2018-08-20T03:44:45.943Z,21.40
2018-08-20T03:47:14.321Z,20.02
2018-08-20T03:49:42.600Z,16.48
2018-08-20T03:52:10.882Z,17.87
2018-08-20T03:54:39.218Z,17.30
2018-08-20T03:57:07.679Z,18.82
2018-08-20T03:59:37.034Z,20.60
2018-08-20T04:02:06.880Z,15.98
2018-08-20T04:04:35.197Z,19.92
2018-08-20T04:07:04.882Z,14.05
2018-08-20T04:09:33.684Z,26.60
2018-08-20T04:12:02.867Z,15.30
2018-08-20T04:14:31.168Z,17.92
2018-08-20T04:16:59.829Z,15.50
2018-08-20T04:19:28.531Z,19.20
2018-08-20T04:21:57.018Z,23.22
2018-08-20T04:24:25.297Z,21.45
2018-08-20T04:26:53.650Z,16.02
2018-08-20T04:29:22.344Z,18.87
2018-08-20T04:31:50.672Z,25.55
2018-08-20T04:34:18.944Z,18.17
2018-08-20T04:36:47.271Z,21.35
2018-08-20T04:39:15.589Z,16.65
2018-08-20T04:41:43.860Z,20.80
2018-08-20T04:44:12.158Z,25.80
2018-08-20T04:46:40.447Z,15.85
2018-08-20T04:49:08.749Z,16.32
2018-08-20T04:51:37.091Z,24.82
2018-08-20T04:54:05.318Z,23.30
2018-08-20T04:56:33.605Z,17.77
2018-08-20T04:59:01.963Z,20.72
2018-08-20T05:01:30.304Z,20.32
2018-08-20T05:03:58.623Z,28.20
2018-08-20T05:06:26.918Z,21.87
2018-08-20T05:08:55.249Z,19.73
2018-08-20T05:11:23.528Z,17.55
2018-08-20T05:13:52.204Z,22.22
2018-08-20T05:16:20.532Z,23.77
2018-08-20T05:18:49.008Z,21.65
2018-08-20T05:21:17.285Z,29.82
2018-08-20T05:23:45.561Z,27.58
2018-08-20T05:26:13.858Z,21.77
2018-08-20T05:28:42.152Z,24.92
2018-08-20T05:31:10.819Z,19.10
2018-08-20T05:36:33.010Z,22.95
2018-08-20T05:39:01.344Z,17.82
2018-08-20T05:41:29.603Z,21.80
2018-08-20T05:43:57.856Z,18.32
2018-08-20T05:46:26.186Z,14.50
2018-08-20T05:48:54.576Z,23.32
2018-08-20T05:51:22.858Z,21.00
2018-08-20T05:53:51.144Z,23.85
2018-08-20T05:56:19.449Z,24.37
2018-08-20T05:58:47.721Z,21.95
2018-08-20T06:01:16.057Z,20.88
2018-08-20T06:03:44.335Z,18.87
2018-08-20T06:06:12.642Z,20.30
2018-08-20T06:08:40.977Z,25.82
2018-08-20T06:11:09.306Z,24.67
2018-08-20T06:13:37.613Z,23.30
2018-08-20T06:16:06.136Z,18.35
2018-08-20T06:18:34.419Z,21.87
2018-08-20T06:21:02.779Z,21.05
2018-08-20T06:23:31.163Z,19.48
2018-08-20T06:25:59.567Z,25.95
2018-08-20T06:28:27.915Z,20.82
2018-08-20T06:30:56.234Z,22.45
2018-08-20T06:33:24.556Z,27.50
2018-08-20T06:35:52.861Z,29.95
2018-08-20T06:38:21.155Z,24.47
2018-08-20T06:40:49.474Z,27.85
2018-08-20T06:43:17.772Z,22.17
2018-08-20T06:45:46.121Z,24.00
2018-08-20T06:48:14.452Z,27.90
2018-08-20T06:50:42.709Z,31.00
2018-08-20T06:53:10.968Z,26.07
2018-08-20T06:55:39.224Z,23.95
2018-08-20T06:58:07.503Z,22.58
2018-08-20T07:00:35.786Z,25.10
2018-08-20T07:03:04.089Z,24.90
2018-08-20T07:05:32.430Z,26.40
2018-08-20T07:08:00.733Z,36.70
2018-08-20T07:10:34.439Z,34.13
2018-08-20T07:13:13.985Z,31.27
2018-08-20T07:15:42.261Z,44.15
2018-08-20T07:18:10.687Z,32.45
2018-08-20T07:20:38.935Z,34.80
2018-08-20T07:23:07.231Z,52.08
2018-08-20T07:25:35.530Z,59.85
2018-08-20T07:28:03.823Z,54.98
2018-08-20T07:30:32.121Z,31.57
2018-08-20T07:33:00.517Z,30.08
2018-08-20T07:35:28.822Z,45.48
2018-08-20T07:37:57.182Z,34.13
2018-08-20T07:40:25.586Z,28.65
2018-08-20T07:42:53.862Z,37.60
2018-08-20T07:45:22.135Z,33.65
2018-08-20T07:47:50.397Z,30.25
2018-08-20T07:50:18.647Z,31.68
2018-08-20T07:52:46.973Z,25.43
2018-08-20T07:55:15.250Z,26.48
2018-08-20T07:57:43.550Z,52.20
2018-08-20T08:00:11.847Z,50.80
2018-08-20T08:02:40.213Z,30.50
2018-08-20T08:05:09.751Z,22.58
2018-08-20T08:07:38.156Z,32.13
2018-08-20T08:10:08.379Z,28.27
2018-08-20T08:12:37.397Z,29.27
2018-08-20T08:15:06.486Z,61.75
2018-08-20T08:17:34.808Z,40.00
2018-08-20T08:20:03.189Z,118.93
2018-08-20T08:22:31.463Z,33.08
2018-08-20T08:24:59.838Z,59.70
2018-08-20T08:27:28.148Z,25.02
2018-08-20T08:29:56.453Z,35.20
2018-08-20T08:32:24.761Z,37.03
2018-08-20T08:34:53.029Z,48.75
2018-08-20T08:37:21.328Z,69.42
2018-08-20T08:39:49.621Z,40.15
2018-08-20T08:42:17.921Z,175.80
2018-08-20T08:44:46.315Z,181.57
2018-08-20T08:47:14.747Z,143.17
2018-08-20T08:49:43.299Z,34.75
2018-08-20T08:52:11.584Z,35.17
2018-08-20T08:54:39.949Z,81.82
2018-08-20T08:57:08.270Z,36.42
2018-08-20T08:59:36.638Z,31.70
2018-08-20T09:02:05.004Z,32.65
2018-08-20T09:04:33.287Z,41.70
2018-08-20T09:07:01.825Z,28.15
2018-08-20T09:09:30.112Z,40.20
2018-08-20T09:11:58.400Z,46.65
2018-08-20T09:14:26.734Z,136.37
2018-08-20T09:16:55.054Z,27.58
2018-08-20T09:19:23.407Z,47.83
2018-08-20T09:21:51.670Z,39.73
2018-08-20T09:24:19.978Z,28.07
2018-08-20T09:26:48.400Z,25.25
2018-08-20T09:29:16.675Z,25.62
2018-08-20T09:31:44.989Z,26.73
2018-08-20T09:34:13.322Z,25.65
2018-08-20T09:36:41.671Z,27.20
2018-08-20T09:39:09.972Z,24.85
2018-08-20T09:41:38.232Z,22.55
2018-08-20T09:44:06.750Z,24.52
2018-08-20T09:46:35.056Z,19.67
2018-08-20T09:49:03.333Z,27.22
2018-08-20T09:51:31.939Z,23.20
2018-08-20T09:54:00.245Z,23.35
2018-08-20T09:56:28.543Z,22.50
2018-08-20T09:58:56.907Z,25.70
2018-08-20T10:01:25.146Z,23.18
2018-08-20T10:03:53.439Z,28.27
2018-08-20T10:06:21.748Z,25.48
2018-08-20T10:08:50.185Z,27.52
2018-08-20T10:11:18.540Z,42.40
2018-08-20T10:13:46.897Z,26.73
2018-08-20T10:16:15.185Z,27.77
2018-08-20T10:18:43.575Z,27.85
2018-08-20T10:21:12.110Z,26.25
2018-08-20T10:23:40.396Z,26.90
2018-08-20T10:26:08.694Z,28.38
2018-08-20T10:28:37.321Z,26.33
2018-08-20T10:31:05.920Z,29.85
2018-08-20T10:33:34.265Z,29.45
2018-08-20T10:36:02.571Z,30.35
2018-08-20T10:38:30.853Z,27.55
2018-08-20T10:40:59.170Z,25.50
2018-08-20T10:43:27.516Z,27.90
2018-08-20T10:46:01.155Z,28.20
2018-08-20T10:48:29.449Z,26.80
2018-08-20T10:50:57.791Z,28.75
2018-08-20T10:53:26.312Z,22.00
2018-08-20T10:55:55.126Z,20.77
2018-08-20T10:58:23.412Z,20.37
2018-08-20T11:00:51.709Z,22.75
2018-08-20T11:03:20.003Z,22.20
2018-08-20T11:05:48.318Z,21.48
2018-08-20T11:08:16.933Z,22.20
2018-08-20T11:10:45.346Z,22.55
2018-08-20T11:13:13.609Z,19.70
2018-08-20T11:15:41.955Z,23.47
2018-08-20T11:18:10.857Z,19.77
2018-08-20T11:20:39.190Z,16.40
2018-08-20T11:23:07.547Z,30.25
2018-08-20T11:25:35.977Z,20.50
2018-08-20T11:28:04.311Z,23.55
2018-08-20T11:30:32.617Z,18.00
2018-08-20T11:33:01.505Z,16.35
2018-08-20T11:35:29.807Z,17.00
2018-08-20T11:37:58.092Z,19.20
2018-08-20T11:40:26.391Z,15.38
2018-08-20T11:42:54.717Z,10.88
2018-08-20T11:45:23.028Z,6.55
2018-08-20T11:47:51.382Z,5.65
2018-08-20T11:50:19.683Z,14.85
2018-08-20T11:52:47.976Z,4.62
2018-08-20T11:55:16.286Z,7.00
2018-08-20T11:57:44.630Z,7.15
2018-08-20T12:00:12.954Z,5.00
2018-08-20T12:02:41.297Z,7.33
2018-08-20T12:05:10.261Z,2.42
2018-08-20T12:07:38.811Z,4.25
2018-08-20T12:10:08.106Z,4.80
2018-08-20T12:12:36.671Z,6.55
2018-08-20T12:15:07.878Z,5.83
2018-08-20T12:17:36.212Z,4.10
2018-08-20T12:20:05.188Z,5.00
2018-08-20T12:22:33.478Z,5.47
2018-08-20T12:25:01.830Z,8.35
2018-08-20T12:27:30.148Z,7.12
2018-08-20T12:29:58.424Z,4.12
2018-08-20T12:32:26.723Z,6.15
2018-08-20T12:34:55.036Z,7.35
2018-08-20T12:37:23.328Z,6.58
2018-08-20T12:39:51.764Z,6.08
2018-08-20T12:42:20.054Z,8.75
2018-08-20T12:44:48.428Z,7.72
2018-08-20T12:47:16.981Z,6.22
2018-08-20T12:49:45.517Z,8.28
2018-08-20T12:52:13.956Z,8.50
2018-08-20T12:54:43.085Z,8.85
2018-08-20T12:57:11.377Z,8.45
2018-08-20T12:59:39.652Z,24.95
2018-08-20T13:02:08.085Z,8.08
2018-08-20T13:04:36.452Z,12.63
2018-08-20T13:07:04.771Z,7.90
2018-08-20T13:09:33.041Z,8.88
2018-08-20T13:12:02.316Z,9.63
2018-08-20T13:14:30.635Z,7.53
2018-08-20T13:16:58.967Z,9.85
2018-08-20T13:19:27.310Z,8.90
2018-08-20T13:21:55.647Z,9.58
2018-08-20T13:24:23.923Z,7.87
2018-08-20T13:26:52.207Z,8.55
2018-08-20T13:29:20.551Z,7.78
2018-08-20T13:31:48.929Z,8.28
2018-08-20T13:34:17.194Z,9.05
2018-08-20T13:36:45.474Z,6.40
2018-08-20T13:39:13.750Z,5.10
2018-08-20T13:41:42.062Z,13.48
2018-08-20T13:44:10.344Z,7.53
2018-08-20T13:46:38.684Z,7.85
2018-08-20T13:49:06.977Z,7.55
2018-08-20T13:51:35.282Z,9.13
2018-08-20T13:54:03.615Z,7.72
2018-08-20T13:56:31.975Z,8.65
2018-08-20T13:59:00.256Z,5.83
2018-08-20T14:01:28.690Z,8.30
2018-08-20T14:03:57.513Z,8.00
2018-08-20T14:06:25.956Z,10.13
2018-08-20T14:08:54.266Z,11.25
2018-08-20T14:11:22.639Z,7.92
2018-08-20T14:13:50.910Z,6.45
2018-08-20T14:16:19.207Z,5.12
2018-08-20T14:18:47.535Z,5.15
2018-08-20T14:21:16.413Z,3.37
2018-08-20T14:23:47.200Z,5.30
2018-08-20T14:26:15.543Z,2.17
2018-08-20T14:28:43.932Z,1.72
2018-08-20T14:31:12.284Z,2.98
2018-08-20T14:33:40.610Z,4.70
2018-08-20T14:36:09.726Z,5.90
2018-08-20T14:38:38.038Z,1.87
2018-08-20T14:41:06.638Z,1.47
2018-08-20T14:43:35.030Z,3.27
2018-08-20T14:46:08.775Z,0.80
2018-08-20T14:48:37.324Z,1.92
2018-08-20T14:51:05.775Z,0.93
2018-08-20T14:53:34.154Z,1.77
2018-08-20T14:56:02.406Z,1.37
2018-08-20T14:58:30.790Z,3.92
2018-08-20T15:00:59.132Z,1.20
2018-08-20T15:03:27.450Z,1.15
2018-08-20T15:05:55.689Z,2.02
2018-08-20T15:08:24.104Z,2.33
2018-08-20T15:10:52.404Z,1.47
2018-08-20T15:13:20.713Z,1.05
2018-08-20T15:15:49.130Z,2.10
2018-08-20T15:18:17.293Z,1.00
2018-08-20T15:20:46.005Z,2.80
2018-08-20T15:23:14.327Z,1.27
2018-08-20T15:25:42.652Z,1.50
2018-08-20T15:28:10.947Z,1.50
2018-08-20T15:30:39.402Z,1.10
2018-08-20T15:33:07.749Z,3.22
2018-08-20T15:35:36.050Z,0.80
2018-08-20T15:38:04.350Z,2.05
2018-08-20T15:40:32.608Z,0.70
2018-08-20T15:43:00.937Z,1.52
2018-08-20T15:45:29.351Z,2.15
2018-08-20T15:47:57.671Z,1.98
2018-08-20T15:50:25.976Z,2.05
2018-08-20T15:52:54.295Z,1.72
2018-08-20T15:55:22.598Z,1.10
2018-08-20T15:57:50.947Z,1.30
2018-08-20T16:00:19.301Z,0.85
2018-08-20T16:02:47.611Z,3.50
2018-08-20T16:05:15.889Z,0.90
2018-08-20T16:07:45.163Z,0.85
2018-08-20T16:10:13.603Z,0.62
2018-08-20T16:12:41.880Z,0.68
2018-08-20T16:15:10.644Z,4.90
2018-08-20T16:17:39.116Z,1.87
2018-08-20T16:20:07.806Z,0.50
2018-08-20T16:22:36.408Z,2.37
2018-08-20T16:25:06.109Z,3.95
2018-08-20T16:27:34.427Z,1.52
2018-08-20T16:30:02.818Z,2.95
2018-08-20T16:32:31.116Z,2.05
2018-08-20T16:34:59.444Z,1.05
2018-08-20T16:37:27.786Z,1.27
2018-08-20T16:39:56.113Z,0.80
2018-08-20T16:42:24.432Z,3.02
2018-08-20T16:44:52.759Z,1.72
2018-08-20T16:47:21.133Z,2.05
2018-08-20T16:49:49.441Z,0.78
2018-08-20T16:52:17.718Z,0.50
2018-08-20T16:54:46.092Z,2.92
2018-08-20T16:57:14.376Z,1.92
2018-08-20T16:59:42.690Z,0.75
2018-08-20T17:02:42.540Z,0.45
2018-08-20T17:05:12.121Z,1.45
2018-08-20T17:07:40.427Z,3.77
2018-08-20T17:10:10.184Z,0.60
2018-08-20T17:12:38.782Z,2.50
2018-08-20T17:15:11.043Z,0.90
2018-08-20T17:17:39.723Z,0.80
2018-08-20T17:20:15.126Z,1.98
2018-08-20T17:22:43.499Z,5.45
2018-08-20T17:25:11.840Z,2.58
2018-08-20T17:27:40.249Z,1.55
2018-08-20T17:30:09.189Z,1.20
2018-08-20T17:32:37.432Z,2.17
2018-08-20T17:35:07.625Z,1.00
2018-08-20T17:37:35.912Z,1.32
2018-08-20T17:40:08.149Z,0.78
2018-08-20T17:42:36.438Z,0.95
2018-08-20T17:45:05.238Z,1.67
2018-08-20T17:47:33.741Z,0.80
2018-08-20T17:50:02.279Z,2.10
2018-08-20T17:52:33.938Z,1.17
2018-08-20T17:55:03.911Z,2.87
2018-08-20T17:57:32.638Z,3.35
2018-08-20T18:01:04.286Z,1.92
2018-08-20T18:03:33.323Z,2.80
2018-08-20T18:06:07.393Z,0.60
2018-08-20T18:08:36.098Z,1.60
2018-08-20T18:11:05.214Z,1.52
2018-08-20T18:13:47.430Z,0.70
2018-08-20T18:16:16.896Z,0.60
2018-08-20T18:18:46.768Z,1.67
2018-08-20T18:21:15.036Z,1.05
2018-08-20T18:23:43.257Z,2.55
2018-08-20T18:26:11.590Z,1.07
2018-08-20T18:28:45.731Z,0.78
2018-08-20T18:31:18.200Z,0.60
2018-08-20T18:33:46.504Z,2.52
2018-08-20T18:36:15.904Z,2.00
2018-08-20T18:39:01.896Z,1.20
2018-08-20T18:41:54.055Z,1.95
2018-08-20T18:44:23.009Z,0.65
2018-08-20T18:46:51.811Z,1.75
2018-08-20T18:49:20.500Z,0.68
2018-08-20T18:51:57.039Z,1.50
2018-08-20T18:54:25.997Z,1.77
2018-08-20T18:57:09.941Z,2.02
2018-08-20T18:59:39.343Z,4.37
2018-08-20T19:02:09.956Z,7.28
2018-08-20T19:04:43.489Z,2.30
2018-08-20T19:07:13.238Z,3.52
2018-08-20T19:09:46.183Z,1.47
2018-08-20T19:12:14.589Z,2.50
2018-08-20T19:14:42.902Z,3.30
2018-08-20T19:17:16.649Z,5.25
2018-08-20T19:19:48.930Z,4.22
2018-08-20T19:22:22.636Z,2.50
2018-08-20T19:24:51.064Z,2.98
2018-08-20T19:27:19.332Z,2.35
2018-08-20T19:29:47.914Z,2.10
2018-08-20T19:32:16.290Z,2.22
2018-08-20T19:34:44.675Z,4.12
2018-08-20T19:37:12.915Z,4.53
2018-08-20T19:39:41.342Z,3.47
2018-08-20T19:42:09.798Z,2.65
2018-08-20T19:44:38.125Z,1.37
2018-08-20T19:47:06.409Z,2.58
2018-08-20T19:49:34.648Z,4.85
2018-08-20T19:52:02.920Z,3.50
2018-08-20T19:54:31.284Z,6.70
2018-08-20T19:56:59.596Z,1.35
2018-08-20T19:59:33.144Z,1.50
2018-08-20T20:02:01.381Z,4.37
2018-08-20T20:04:29.690Z,2.12
2018-08-20T20:06:58.020Z,2.60
2018-08-20T20:09:26.277Z,1.32
2018-08-20T20:11:54.608Z,1.70
2018-08-20T20:14:22.916Z,2.33
2018-08-20T20:16:53.224Z,1.40
2018-08-20T20:19:21.640Z,3.15
2018-08-20T20:21:49.925Z,4.45
2018-08-20T20:24:18.227Z,1.27
2018-08-20T20:26:46.540Z,1.42
2018-08-20T20:29:14.930Z,1.07
2018-08-20T20:31:43.500Z,3.02
2018-08-20T20:34:11.853Z,2.58
2018-08-20T20:36:40.257Z,2.15
2018-08-20T20:39:10.992Z,1.12
2018-08-20T20:41:39.249Z,1.90
2018-08-20T20:44:08.077Z,2.08
2018-08-20T20:46:36.576Z,3.40
2018-08-20T20:49:05.057Z,2.37
2018-08-20T20:51:33.345Z,2.40
2018-08-20T20:54:01.727Z,3.65
2018-08-20T20:56:30.134Z,6.85
2018-08-20T20:58:58.565Z,2.83
2018-08-20T21:01:27.002Z,3.80
2018-08-20T21:03:55.299Z,1.62
2018-08-20T21:06:23.659Z,1.40
2018-08-20T21:08:52.359Z,1.95
2018-08-20T21:11:22.167Z,3.60
2018-08-20T21:13:50.434Z,2.58
2018-08-20T21:16:22.683Z,3.47
2018-08-20T21:18:53.017Z,4.17
2018-08-20T21:21:21.951Z,3.77
2018-08-20T21:23:50.224Z,1.92
2018-08-20T21:26:18.555Z,7.33
2018-08-20T21:28:51.166Z,6.37
2018-08-20T21:31:20.992Z,4.42
2018-08-20T21:33:54.715Z,2.67
2018-08-20T21:36:22.987Z,2.92
2018-08-20T21:38:51.281Z,3.12
2018-08-20T21:41:23.165Z,4.42
2018-08-20T21:43:51.602Z,1.98
2018-08-20T21:46:19.874Z,2.60
2018-08-20T21:48:48.171Z,4.90
2018-08-20T21:51:19.467Z,2.37
2018-08-20T21:53:47.876Z,4.83
2018-08-20T21:56:16.141Z,3.42
2018-08-20T21:58:44.904Z,3.45
2018-08-20T22:01:15.064Z,1.70
2018-08-20T22:03:43.768Z,3.25
2018-08-20T22:06:12.910Z,1.70
2018-08-20T22:08:41.274Z,6.53
2018-08-20T22:11:10.363Z,3.35
2018-08-20T22:13:38.743Z,7.60
2018-08-20T22:16:21.994Z,2.27
2018-08-20T22:18:57.653Z,5.30
2018-08-20T22:21:26.115Z,4.97
2018-08-20T22:24:00.562Z,3.85
2018-08-20T22:26:28.877Z,3.55
2018-08-20T22:28:57.707Z,1.57
2018-08-20T22:31:26.005Z,1.40
2018-08-20T22:33:59.709Z,4.05
2018-08-20T22:36:29.177Z,3.40
2018-08-20T22:38:59.726Z,4.85
2018-08-20T22:41:29.259Z,3.58
2018-08-20T22:43:57.645Z,5.22
2018-08-20T22:46:26.152Z,4.45
2018-08-20T22:48:56.479Z,3.67
2018-08-20T22:51:25.616Z,8.95
2018-08-20T22:53:55.004Z,2.02
2018-08-20T22:56:28.781Z,5.67
2018-08-20T22:58:59.398Z,4.92
2018-08-20T23:01:27.762Z,5.53
2018-08-20T23:03:56.052Z,3.42
2018-08-20T23:06:24.701Z,3.85
2018-08-20T23:08:53.213Z,5.45
2018-08-20T23:11:36.799Z,3.90
2018-08-20T23:14:05.980Z,2.65
2018-08-20T23:16:34.253Z,6.10
2018-08-20T23:19:02.702Z,2.77
2018-08-20T23:21:34.857Z,2.77
2018-08-20T23:24:03.148Z,4.15
2018-08-20T23:26:31.421Z,3.17
2018-08-20T23:28:59.757Z,3.60
2018-08-20T23:31:28.182Z,2.55
2018-08-20T23:33:56.505Z,7.58
2018-08-20T23:36:24.793Z,4.90
2018-08-20T23:38:53.074Z,2.80
2018-08-20T23:41:21.365Z,5.75
2018-08-20T23:43:55.921Z,2.77
2018-08-20T23:46:33.060Z,5.33
2018-08-20T23:49:02.039Z,3.77
2018-08-20T23:51:30.408Z,3.42
2018-08-20T23:53:58.737Z,2.60
2018-08-20T23:56:26.999Z,3.95
2018-08-20T23:58:55.378Z,6.20
